createdAt,value
2023-04-22T00:04:31.407Z,99621.88
2023-04-22T00:09:33.084Z,99631.16
2023-04-22T00:14:35.393Z,99619.28
2023-04-22T00:19:37.409Z,99618.31
2023-04-22T00:24:39.193Z,99620.09
2023-04-22T00:29:40.993Z,99621.19
2023-04-22T00:34:42.904Z,99618.75
2023-04-22T00:39:44.410Z,99612.97
2023-04-22T00:44:47.420Z,99609.66
2023-04-22T00:49:49.797Z,99612.13
2023-04-22T00:54:52.309Z,99613.84
2023-04-22T00:59:53.971Z,99623.53
2023-04-22T01:04:55.554Z,99618.88
2023-04-22T01:09:57.886Z,99617.88
2023-04-22T01:14:59.815Z,99629.72
2023-04-22T01:20:04.252Z,99624.97
2023-04-22T01:25:06.840Z,99633.84
2023-04-22T01:30:09.792Z,99639.31
2023-04-22T01:35:13.805Z,99631.44
2023-04-22T01:40:19.715Z,99627.53
2023-04-22T01:45:21.228Z,99634.13
2023-04-22T01:50:23.395Z,99636.03
2023-04-22T01:55:25.037Z,99652.97
2023-04-22T02:00:26.576Z,99653.72
2023-04-22T02:05:28.106Z,99637.03
2023-04-22T02:10:29.645Z,99641.06
2023-04-22T02:15:31.236Z,99639.38
2023-04-22T02:20:32.837Z,99646.19
2023-04-22T02:25:34.360Z,99647.47
2023-04-22T02:30:35.865Z,99655.88
2023-04-22T02:35:37.552Z,99662.09
2023-04-22T02:40:39.162Z,99651.97
2023-04-22T02:45:41.433Z,99650.13
2023-04-22T02:50:43.044Z,99661.94
2023-04-22T02:55:44.646Z,99664.19
2023-04-22T03:00:46.219Z,99668.09
2023-04-22T03:05:47.749Z,99659.66
2023-04-22T03:10:49.933Z,99650.72
2023-04-22T03:15:51.494Z,99656.66
2023-04-22T03:20:53.915Z,99660.25
2023-04-22T03:25:55.744Z,99652.53
2023-04-22T03:30:57.687Z,99671.22
2023-04-22T03:35:59.632Z,99675.44
2023-04-22T03:41:01.535Z,99676.13
2023-04-22T03:46:13.269Z,99674.72
2023-04-22T03:51:19.064Z,99669.75
2023-04-22T03:56:22.270Z,99665.59
2023-04-22T04:01:24.490Z,99656.81
2023-04-22T04:06:29.143Z,99652.34
2023-04-22T04:11:30.821Z,99650.63
2023-04-22T04:16:33.146Z,99643.56
2023-04-22T04:21:43.461Z,99636.69
2023-04-22T04:26:45.197Z,99640.06
2023-04-22T04:31:55.333Z,99650.38
2023-04-22T04:37:00.941Z,99644.31
2023-04-22T04:42:12.110Z,99641.41
2023-04-22T04:47:22.634Z,99648.25
2023-04-22T04:52:25.519Z,99647.19
2023-04-22T04:57:28.556Z,99657.47
2023-04-22T05:02:30.961Z,99668.56
2023-04-22T05:07:32.712Z,99667.31
2023-04-22T05:12:34.302Z,99655.56
2023-04-22T05:17:39.028Z,99665.63
2023-04-22T05:22:45.829Z,99666.69
2023-04-22T05:27:48.679Z,99668.31
2023-04-22T05:32:51.778Z,99666.81
2023-04-22T05:37:53.418Z,99670.84
2023-04-22T05:42:55.178Z,99688.84
2023-04-22T05:47:56.880Z,99699.25
2023-04-22T05:53:00.820Z,99708.41
2023-04-22T05:58:03.429Z,99711.56
2023-04-22T06:03:34.092Z,99710.16
2023-04-22T06:08:37.087Z,99711.47
2023-04-22T06:13:38.807Z,99715.91
2023-04-22T06:18:40.672Z,99708.78
2023-04-22T06:23:46.227Z,99702.84
2023-04-22T06:28:47.758Z,99694.91
2023-04-22T06:33:53.141Z,99690.94
2023-04-22T06:38:57.257Z,99674.81
2023-04-22T06:44:11.293Z,99663.13
2023-04-22T06:49:30.093Z,99672.28
2023-04-22T06:54:57.843Z,99671.22
2023-04-22T06:59:59.386Z,99672.97
2023-04-22T07:05:02.401Z,99678.38
2023-04-22T07:10:04.927Z,99669.63
2023-04-22T07:15:12.262Z,99662.63
2023-04-22T07:20:15.975Z,99670.41
2023-04-22T07:25:17.506Z,99672.75
2023-04-22T07:30:19.002Z,99672.41
2023-04-22T07:35:20.509Z,99660.78
2023-04-22T07:40:22.004Z,99662.59
2023-04-22T07:45:23.544Z,99647.81
2023-04-22T07:50:25.218Z,99638.53
2023-04-22T07:55:26.786Z,99619.66
2023-04-22T08:00:28.454Z,99621.41
2023-04-22T08:05:30.106Z,99622.03
2023-04-22T08:10:32.221Z,99614.41
2023-04-22T08:15:33.762Z,99601.56
2023-04-22T08:20:35.303Z,99595.69
2023-04-22T08:25:36.973Z,99580.84
2023-04-22T08:30:38.528Z,99587.84
2023-04-22T08:35:40.486Z,99578.31
2023-04-22T08:40:42.665Z,99590.81
2023-04-22T08:45:45.034Z,99591.88
2023-04-22T08:50:48.258Z,99577.78
2023-04-22T08:55:50.622Z,99570.38
2023-04-22T09:00:53.012Z,99548.94
2023-04-22T09:05:55.241Z,99545.16
2023-04-22T09:10:58.609Z,99527.56
2023-04-22T09:16:00.193Z,99537.03
2023-04-22T09:21:01.781Z,99514.59
2023-04-22T09:26:03.735Z,99526.13
2023-04-22T09:31:05.433Z,99534.06
2023-04-22T09:36:10.202Z,99532.69
2023-04-22T09:41:12.402Z,99543.56
2023-04-22T09:46:13.986Z,99535.84
2023-04-22T09:51:17.095Z,99563.53
2023-04-22T09:56:18.676Z,99545.63
2023-04-22T10:01:20.242Z,99534.44
2023-04-22T10:06:22.317Z,99538.59
2023-04-22T10:11:23.852Z,99534.16
2023-04-22T10:16:26.374Z,99533.75
2023-04-22T10:21:32.414Z,99524.22
2023-04-22T10:26:49.242Z,99508.75
2023-04-22T10:32:05.715Z,99504.00
2023-04-22T10:37:14.534Z,99505.25
2023-04-22T10:42:16.126Z,99493.84
2023-04-22T10:47:46.941Z,99495.31
2023-04-22T10:52:55.109Z,99489.16
2023-04-22T10:57:59.506Z,99457.78
2023-04-22T11:03:10.564Z,99490.63
2023-04-22T11:08:13.693Z,99497.69
2023-04-22T11:13:17.330Z,99506.34
2023-04-22T11:18:27.151Z,99517.47
2023-04-22T11:23:29.047Z,99514.94
2023-04-22T11:28:31.057Z,99522.06
2023-04-22T11:33:34.400Z,99528.47
2023-04-22T11:38:36.066Z,99530.00
2023-04-22T11:43:46.955Z,99531.53
2023-04-22T11:48:48.434Z,99544.28
2023-04-22T11:53:51.213Z,99546.44
2023-04-22T11:58:52.750Z,99558.31
2023-04-22T12:04:00.078Z,99535.13
2023-04-22T12:09:03.851Z,99551.09
2023-04-22T12:14:08.424Z,99532.16
2023-04-22T12:19:10.059Z,99541.00
2023-04-22T12:24:11.662Z,99531.69
2023-04-22T12:29:13.214Z,99532.94
2023-04-22T12:34:14.695Z,99544.88
2023-04-22T12:39:16.297Z,99537.28
2023-04-22T12:44:17.831Z,99537.38
2023-04-22T12:49:19.339Z,99521.97
2023-04-22T12:54:21.550Z,99529.09
2023-04-22T12:59:23.157Z,99528.78
2023-04-22T13:04:24.741Z,99513.91
2023-04-22T13:09:27.212Z,99507.53
2023-04-22T13:14:31.157Z,99522.81
2023-04-22T13:19:35.123Z,99518.09
2023-04-22T13:24:36.717Z,99509.16
2023-04-22T13:29:38.705Z,99478.59
2023-04-22T13:34:40.522Z,99478.69
2023-04-22T13:39:42.490Z,99487.19
2023-04-22T13:44:44.312Z,99485.22
2023-04-22T13:49:45.913Z,99476.53
2023-04-22T13:54:47.501Z,99471.63
2023-04-22T13:59:50.247Z,99465.34
2023-04-22T14:04:52.024Z,99458.16
2023-04-22T14:09:53.505Z,99464.06
2023-04-22T14:14:55.006Z,99470.03
2023-04-22T14:19:56.821Z,99467.47
2023-04-22T14:24:58.394Z,99465.06
2023-04-22T14:29:59.950Z,99464.59
2023-04-22T14:35:01.662Z,99465.75
2023-04-22T14:40:04.162Z,99466.00
2023-04-22T14:45:06.183Z,99475.00
2023-04-22T14:50:07.966Z,99472.75
2023-04-22T14:55:22.028Z,99468.16
2023-04-22T15:00:28.239Z,99471.03
2023-04-22T15:05:29.783Z,99480.78
2023-04-22T15:10:31.316Z,99482.66
2023-04-22T15:15:32.835Z,99484.19
2023-04-22T15:20:35.006Z,99487.44
2023-04-22T15:25:36.638Z,99492.78
2023-04-22T15:30:38.204Z,99491.66
2023-04-22T15:35:45.105Z,99492.16
2023-04-22T15:40:46.935Z,99504.56
2023-04-22T15:45:48.496Z,99501.28
2023-04-22T15:50:50.027Z,99512.25
2023-04-22T15:55:51.674Z,99507.06
2023-04-22T16:00:53.289Z,99506.56
2023-04-22T16:05:55.350Z,99501.88
2023-04-22T16:10:56.891Z,99504.00
2023-04-22T16:15:58.533Z,99508.78
2023-04-22T16:21:00.598Z,99513.19
2023-04-22T16:26:04.431Z,99514.13
2023-04-22T16:31:06.154Z,99515.94
2023-04-22T16:36:08.929Z,99513.81
2023-04-22T16:41:11.614Z,99522.31
2023-04-22T16:46:13.347Z,99507.56
2023-04-22T16:51:14.949Z,99519.78
2023-04-22T16:56:16.422Z,99519.78
2023-04-22T17:01:17.987Z,99528.38
2023-04-22T17:06:19.694Z,99529.38
2023-04-22T17:11:21.990Z,99538.28
2023-04-22T17:16:23.813Z,99555.78
2023-04-22T17:21:27.008Z,99570.78
2023-04-22T17:26:29.340Z,99576.50
2023-04-22T17:31:31.069Z,99579.09
2023-04-22T17:36:32.760Z,99588.84
2023-04-22T17:41:34.393Z,99589.63
2023-04-22T17:46:35.985Z,99599.91
2023-04-22T17:51:37.573Z,99588.38
2023-04-22T17:56:39.219Z,99595.09
2023-04-22T18:01:40.831Z,99603.59
2023-04-22T18:06:42.366Z,99608.22
2023-04-22T18:11:44.028Z,99610.34
2023-04-22T18:16:45.582Z,99612.88
2023-04-22T18:21:59.086Z,99613.47
2023-04-22T18:27:02.782Z,99612.72
2023-04-22T18:32:04.460Z,99605.88
2023-04-22T18:37:05.975Z,99613.69
2023-04-22T18:42:07.612Z,99608.75
2023-04-22T18:47:09.344Z,99611.81
2023-04-22T18:52:13.469Z,99613.81
2023-04-22T18:57:14.956Z,99623.50
2023-04-22T19:02:16.603Z,99638.69
2023-04-22T19:07:18.152Z,99640.09
2023-04-22T19:12:19.770Z,99648.13
2023-04-22T19:17:21.371Z,99648.69
2023-04-22T19:22:22.992Z,99657.25
2023-04-22T19:27:25.473Z,99663.88
2023-04-22T19:32:27.014Z,99665.53
2023-04-22T19:37:28.605Z,99670.16
2023-04-22T19:42:30.508Z,99667.13
2023-04-22T19:47:32.243Z,99662.16
2023-04-22T19:52:35.287Z,99660.22
2023-04-22T19:57:37.434Z,99655.78
2023-04-22T20:02:39.316Z,99664.59
2023-04-22T20:07:43.357Z,99659.03
2023-04-22T20:12:45.941Z,99655.97
2023-04-22T20:17:47.829Z,99665.28
2023-04-22T20:22:53.848Z,99667.69
2023-04-22T20:27:56.211Z,99654.16
2023-04-22T20:32:57.901Z,99659.31
2023-04-22T20:38:00.514Z,99661.97
2023-04-22T20:43:02.113Z,99658.66
2023-04-22T20:48:03.750Z,99659.69
2023-04-22T20:53:05.387Z,99654.69
2023-04-22T20:58:06.890Z,99648.81
2023-04-22T21:03:09.233Z,99660.56
2023-04-22T21:08:24.958Z,99662.66
2023-04-22T21:13:27.352Z,99675.78
2023-04-22T21:18:31.591Z,99664.38
2023-04-22T21:23:33.227Z,99671.97
2023-04-22T21:28:35.123Z,99663.22
2023-04-22T21:33:37.687Z,99666.22
2023-04-22T21:38:39.218Z,99677.47
2023-04-22T21:43:41.442Z,99665.72
2023-04-22T21:48:47.420Z,99659.69
2023-04-22T21:53:49.795Z,99660.81
2023-04-22T21:58:51.332Z,99669.38
2023-04-22T22:03:53.237Z,99668.03
2023-04-22T22:08:55.760Z,99667.22
2023-04-22T22:13:57.284Z,99661.72
2023-04-22T22:18:58.928Z,99665.28
2023-04-22T22:24:00.479Z,99671.63
2023-04-22T22:29:02.458Z,99677.69
2023-04-22T22:34:04.062Z,99679.34
2023-04-22T22:39:05.639Z,99671.66
2023-04-22T22:44:07.130Z,99660.66
2023-04-22T22:49:09.489Z,99662.59
2023-04-22T22:54:11.126Z,99668.34
2023-04-22T22:59:12.721Z,99687.81
2023-04-22T23:04:15.768Z,99690.19
2023-04-22T23:09:19.039Z,99698.75
2023-04-22T23:14:21.757Z,99695.41
2023-04-22T23:19:23.489Z,99706.31
2023-04-22T23:24:25.368Z,99705.97
2023-04-22T23:29:27.276Z,99707.03
2023-04-22T23:34:31.775Z,99707.53
2023-04-22T23:39:33.411Z,99711.59
2023-04-22T23:44:34.897Z,99703.53
2023-04-22T23:49:36.693Z,99702.59
2023-04-22T23:54:39.345Z,99707.09
2023-04-22T23:59:43.561Z,99715.09
